createdAt,value
2018-03-06T00:00:14.954Z,57.40
2018-03-06T00:02:43.423Z,57.90
2018-03-06T00:05:11.112Z,57.40
2018-03-06T00:07:38.784Z,57.40
2018-03-06T00:10:06.375Z,57.50
2018-03-06T00:12:34.050Z,57.70
2018-03-06T00:15:01.631Z,57.60
2018-03-06T00:17:30.022Z,58.30
2018-03-06T00:19:57.602Z,57.60
2018-03-06T00:22:25.993Z,57.80
2018-03-06T00:24:54.333Z,57.70
2018-03-06T00:27:21.958Z,57.70
2018-03-06T00:29:50.313Z,58.00
2018-03-06T00:32:17.893Z,57.90
2018-03-06T00:34:45.479Z,57.70
2018-03-06T00:37:13.115Z,57.60
2018-03-06T00:39:40.703Z,57.50
2018-03-06T00:42:08.292Z,57.50
2018-03-06T00:44:35.893Z,57.60
2018-03-06T00:47:04.241Z,58.30
2018-03-06T00:49:31.827Z,57.60
2018-03-06T00:51:59.431Z,57.70
2018-03-06T00:54:27.024Z,57.60
2018-03-06T00:56:54.634Z,57.50
2018-03-06T00:59:22.243Z,57.50
2018-03-06T01:01:50.595Z,57.90
2018-03-06T01:04:18.186Z,57.80
2018-03-06T01:06:45.798Z,58.00
2018-03-06T01:09:13.402Z,57.90
2018-03-06T01:11:41.802Z,58.00
2018-03-06T01:14:09.411Z,57.90
2018-03-06T01:16:37.819Z,58.10
2018-03-06T01:19:06.180Z,58.00
2018-03-06T01:21:34.538Z,58.00
2018-03-06T01:24:02.149Z,58.00
2018-03-06T01:26:30.481Z,58.10
2018-03-06T01:28:58.142Z,58.10
2018-03-06T01:31:26.828Z,58.00
2018-03-06T01:33:55.251Z,58.00
2018-03-06T01:36:22.838Z,57.80
2018-03-06T01:38:50.414Z,57.80
2018-03-06T01:41:18.007Z,57.80
2018-03-06T01:43:45.951Z,57.80
2018-03-06T01:46:13.567Z,57.80
2018-03-06T01:48:41.150Z,57.70
2018-03-06T01:51:09.509Z,57.90
2018-03-06T01:53:37.277Z,57.90
2018-03-06T01:56:04.856Z,58.00
2018-03-06T01:58:32.458Z,58.20
2018-03-06T02:01:00.077Z,58.00
2018-03-06T02:03:27.686Z,58.50
2018-03-06T02:05:56.015Z,57.90
2018-03-06T02:08:23.604Z,58.10
2018-03-06T02:10:51.153Z,58.40
2018-03-06T02:13:18.751Z,58.70
2018-03-06T02:15:46.570Z,58.90
2018-03-06T02:18:14.233Z,58.90
2018-03-06T02:20:41.846Z,59.30
2018-03-06T02:23:10.191Z,60.50
2018-03-06T02:25:38.070Z,60.60
2018-03-06T02:28:05.651Z,60.60
2018-03-06T02:30:33.334Z,60.00
2018-03-06T02:33:00.913Z,59.90
2018-03-06T02:35:28.560Z,59.80
2018-03-06T02:37:56.138Z,59.70
2018-03-06T02:40:23.782Z,59.90
2018-03-06T02:42:51.363Z,59.80
2018-03-06T02:45:18.989Z,59.10
2018-03-06T02:47:47.345Z,58.40
2018-03-06T02:50:14.926Z,58.50
2018-03-06T02:52:42.510Z,58.30
2018-03-06T02:55:10.094Z,58.70
2018-03-06T02:57:39.269Z,59.20
2018-03-06T03:00:06.854Z,59.10
2018-03-06T03:02:35.215Z,59.20
2018-03-06T03:05:03.357Z,59.30
2018-03-06T03:07:31.716Z,58.20
2018-03-06T03:09:59.304Z,58.20
2018-03-06T03:12:26.890Z,58.00
2018-03-06T03:14:55.279Z,58.00
2018-03-06T03:17:23.658Z,58.20
2018-03-06T03:19:51.303Z,58.10
2018-03-06T03:22:19.590Z,58.50
2018-03-06T03:24:47.215Z,58.40
2018-03-06T03:27:15.663Z,58.30
2018-03-06T03:29:43.273Z,58.30
2018-03-06T03:32:10.989Z,58.40
2018-03-06T03:34:38.602Z,58.50
2018-03-06T03:37:06.199Z,58.80
2018-03-06T03:39:34.583Z,58.80
2018-03-06T03:42:02.996Z,59.10
2018-03-06T03:44:30.576Z,59.00
2018-03-06T03:46:58.906Z,59.30
2018-03-06T03:49:26.487Z,59.10
2018-03-06T03:51:54.073Z,59.20
2018-03-06T03:54:21.653Z,59.20
2018-03-06T03:56:49.230Z,59.10
2018-03-06T03:59:17.609Z,59.10
2018-03-06T04:01:45.277Z,59.10
2018-03-06T04:04:12.905Z,59.20
2018-03-06T04:06:40.585Z,59.20
2018-03-06T04:09:08.216Z,59.70
2018-03-06T04:11:35.815Z,60.00
2018-03-06T04:14:03.413Z,60.10
2018-03-06T04:16:31.009Z,60.60
2018-03-06T04:18:58.595Z,60.70
2018-03-06T04:21:26.253Z,60.60
2018-03-06T04:23:53.845Z,60.10
2018-03-06T04:26:21.445Z,59.60
2018-03-06T04:28:49.108Z,59.30
2018-03-06T04:31:16.722Z,59.30
2018-03-06T04:33:44.322Z,59.40
2018-03-06T04:36:11.920Z,59.60
2018-03-06T04:38:39.660Z,59.60
2018-03-06T04:41:07.261Z,59.70
2018-03-06T04:43:34.863Z,59.70
2018-03-06T04:46:02.446Z,59.70
2018-03-06T04:48:30.014Z,59.70
2018-03-06T04:50:57.602Z,59.80
2018-03-06T04:53:25.189Z,59.80
2018-03-06T04:55:52.818Z,59.80
2018-03-06T04:58:20.429Z,59.90
2018-03-06T05:00:48.011Z,59.80
2018-03-06T05:03:15.634Z,59.90
2018-03-06T05:05:43.283Z,59.80
2018-03-06T05:08:10.903Z,59.90
2018-03-06T05:10:38.679Z,59.80
2018-03-06T05:13:06.271Z,59.70
2018-03-06T05:15:33.864Z,59.60
2018-03-06T05:18:01.454Z,59.70
2018-03-06T05:20:29.046Z,59.70
2018-03-06T05:22:56.671Z,59.70
2018-03-06T05:25:24.241Z,59.80
2018-03-06T05:27:51.912Z,59.80
2018-03-06T05:30:19.489Z,59.80
2018-03-06T05:32:47.071Z,59.80
2018-03-06T05:35:14.669Z,59.80
2018-03-06T05:37:43.080Z,59.50
2018-03-06T05:40:10.685Z,59.50
2018-03-06T05:42:38.292Z,59.50
2018-03-06T05:45:05.862Z,59.50
2018-03-06T05:47:33.471Z,60.30
2018-03-06T05:50:02.058Z,59.60
2018-03-06T05:52:30.476Z,59.50
2018-03-06T05:54:58.072Z,59.50
2018-03-06T05:57:25.719Z,59.40
2018-03-06T05:59:53.293Z,59.50
2018-03-06T06:02:20.890Z,60.20
2018-03-06T06:04:48.567Z,60.60
2018-03-06T06:07:16.197Z,60.50
2018-03-06T06:09:43.809Z,60.00
2018-03-06T06:12:11.416Z,59.80
2018-03-06T06:14:39.210Z,59.80
2018-03-06T06:17:06.808Z,59.80
2018-03-06T06:19:35.194Z,60.40
2018-03-06T06:22:03.560Z,60.10
2018-03-06T06:24:31.170Z,60.00
2018-03-06T06:26:58.768Z,59.90
2018-03-06T06:29:26.362Z,60.00
2018-03-06T06:31:54.048Z,60.50
2018-03-06T06:34:22.469Z,60.50
2018-03-06T06:36:50.819Z,60.50
2018-03-06T06:39:18.456Z,60.50
2018-03-06T06:41:46.070Z,60.70
2018-03-06T06:44:14.477Z,60.90
2018-03-06T06:46:42.911Z,61.20
2018-03-06T06:49:11.266Z,61.30
2018-03-06T06:51:39.614Z,61.80
2018-03-06T06:54:07.194Z,60.80
2018-03-06T06:56:34.765Z,60.50
2018-03-06T06:59:02.373Z,60.40
2018-03-06T07:01:30.016Z,60.80
2018-03-06T07:03:57.579Z,60.90
2018-03-06T07:06:25.173Z,61.10
2018-03-06T07:08:52.835Z,61.20
2018-03-06T07:11:20.563Z,61.70
2018-03-06T07:13:48.167Z,61.80
2018-03-06T07:16:15.780Z,61.70
2018-03-06T07:18:43.394Z,61.40
2018-03-06T07:21:11.009Z,61.30
2018-03-06T07:23:39.152Z,61.20
2018-03-06T07:26:06.740Z,61.10
2018-03-06T07:28:34.429Z,61.10
2018-03-06T07:31:02.010Z,61.30
2018-03-06T07:33:29.663Z,61.60
2018-03-06T07:35:57.251Z,61.80
2018-03-06T07:38:24.871Z,61.80
2018-03-06T07:40:53.229Z,62.40
2018-03-06T07:43:21.650Z,62.70
2018-03-06T07:45:49.262Z,62.20
2018-03-06T07:48:16.921Z,62.10
2018-03-06T07:50:44.528Z,62.40
2018-03-06T07:53:12.144Z,62.60
2018-03-06T07:55:39.732Z,62.90
2018-03-06T07:58:08.115Z,62.90
2018-03-06T08:00:37.263Z,62.90
2018-03-06T08:03:05.686Z,62.80
2018-03-06T08:05:33.289Z,63.10
2018-03-06T08:08:00.938Z,62.80
2018-03-06T08:10:28.526Z,62.90
2018-03-06T08:12:56.157Z,63.00
2018-03-06T08:15:23.757Z,63.00
2018-03-06T08:17:51.388Z,63.00
2018-03-06T08:20:19.042Z,63.00
2018-03-06T08:22:46.637Z,63.00
2018-03-06T08:25:14.254Z,63.20
2018-03-06T08:27:41.828Z,63.30
2018-03-06T08:30:10.208Z,63.40
2018-03-06T08:32:39.009Z,63.50
2018-03-06T08:35:07.390Z,63.40
2018-03-06T08:37:34.941Z,63.30
2018-03-06T08:40:02.545Z,63.20
2018-03-06T08:42:30.134Z,63.10
2018-03-06T08:44:58.543Z,62.80
2018-03-06T08:47:27.454Z,63.00
2018-03-06T08:49:55.050Z,63.00
2018-03-06T08:52:59.130Z,63.40
2018-03-06T08:55:28.723Z,63.70
2018-03-06T08:57:58.063Z,63.70
2018-03-06T09:00:26.475Z,63.60
2018-03-06T09:02:54.934Z,63.20
2018-03-06T09:05:23.581Z,63.10
2018-03-06T09:07:51.171Z,63.60
2018-03-06T09:10:18.750Z,62.90
2018-03-06T09:12:46.360Z,63.10
2018-03-06T09:15:13.935Z,62.40
2018-03-06T09:17:42.185Z,62.20
2018-03-06T09:20:11.115Z,62.20
2018-03-06T09:22:39.902Z,62.10
2018-03-06T09:25:08.379Z,62.50
2018-03-06T09:27:37.669Z,62.50
2018-03-06T09:30:06.019Z,62.40
2018-03-06T09:32:33.931Z,62.40
2018-03-06T09:35:06.846Z,62.00
2018-03-06T09:37:35.224Z,61.40
2018-03-06T09:40:05.328Z,61.60
2018-03-06T09:42:34.602Z,61.90
2018-03-06T09:45:03.406Z,61.90
2018-03-06T09:47:32.106Z,61.70
2018-03-06T09:50:01.914Z,61.40
2018-03-06T09:52:30.012Z,61.20
2018-03-06T09:54:57.831Z,60.50
2018-03-06T09:57:25.517Z,60.30
2018-03-06T09:59:53.404Z,59.80
2018-03-06T10:02:22.877Z,59.80
2018-03-06T10:04:50.937Z,59.60
2018-03-06T10:07:18.554Z,59.40
2018-03-06T10:09:47.027Z,59.00
2018-03-06T10:12:15.451Z,58.90
2018-03-06T10:14:43.871Z,58.60
2018-03-06T10:17:11.527Z,59.10
2018-03-06T10:19:39.469Z,58.60
2018-03-06T10:22:07.162Z,58.30
2018-03-06T10:24:35.567Z,57.80
2018-03-06T10:27:03.975Z,57.50
2018-03-06T10:29:31.635Z,57.50
2018-03-06T10:31:59.358Z,57.20
2018-03-06T10:34:27.002Z,57.00
2018-03-06T10:36:54.621Z,56.80
2018-03-06T10:39:23.070Z,56.60
2018-03-06T10:41:50.708Z,56.50
2018-03-06T10:44:19.129Z,56.40
2018-03-06T10:46:46.756Z,56.20
2018-03-06T10:49:16.064Z,56.40
2018-03-06T10:51:43.663Z,56.30
2018-03-06T10:54:12.055Z,55.60
2018-03-06T10:56:40.424Z,55.30
2018-03-06T10:59:08.046Z,55.30
2018-03-06T11:01:36.700Z,55.40
2018-03-06T11:04:04.361Z,55.20
2018-03-06T11:06:31.960Z,55.00
2018-03-06T11:09:00.334Z,54.50
2018-03-06T11:11:27.921Z,54.50
2018-03-06T11:13:56.260Z,54.20
2018-03-06T11:16:23.845Z,54.10
2018-03-06T11:18:51.459Z,54.10
2018-03-06T11:21:19.135Z,53.80
2018-03-06T11:23:47.584Z,53.50
2018-03-06T11:26:15.166Z,53.40
2018-03-06T11:28:42.771Z,53.30
2018-03-06T11:31:11.175Z,52.80
2018-03-06T11:33:39.542Z,52.40
2018-03-06T11:36:07.126Z,52.30
2018-03-06T11:38:34.746Z,52.10
2018-03-06T11:41:03.073Z,51.40
2018-03-06T11:43:30.772Z,51.90
2018-03-06T11:45:59.165Z,50.90
2018-03-06T11:48:26.777Z,50.80
2018-03-06T11:50:54.742Z,51.40
2018-03-06T11:53:22.371Z,50.50
2018-03-06T11:55:49.936Z,49.50
2018-03-06T11:58:18.304Z,49.30
2018-03-06T12:00:45.881Z,49.30
2018-03-06T12:03:13.494Z,49.20
2018-03-06T12:05:41.134Z,49.10
2018-03-06T12:08:08.804Z,48.70
2018-03-06T12:10:36.394Z,48.60
2018-03-06T12:13:04.802Z,48.10
2018-03-06T12:15:33.167Z,48.10
2018-03-06T12:18:00.908Z,48.10
2018-03-06T12:20:28.481Z,48.10
2018-03-06T12:22:56.056Z,48.20
2018-03-06T12:25:23.682Z,47.70
2018-03-06T12:27:52.047Z,47.60
2018-03-06T12:30:19.652Z,47.50
2018-03-06T12:32:48.011Z,46.90
2018-03-06T12:35:15.686Z,46.80
2018-03-06T12:37:43.351Z,47.00
2018-03-06T12:40:10.937Z,46.80
2018-03-06T12:42:38.629Z,46.30
2018-03-06T12:45:06.987Z,46.00
2018-03-06T12:47:34.609Z,45.90
2018-03-06T12:50:02.201Z,45.50
2018-03-06T12:52:29.832Z,45.50
2018-03-06T12:54:58.379Z,45.30
2018-03-06T12:57:25.892Z,45.30
2018-03-06T12:59:53.526Z,45.30
2018-03-06T13:02:21.120Z,45.40
2018-03-06T13:04:50.327Z,45.20
2018-03-06T13:07:17.964Z,45.20
2018-03-06T13:09:45.630Z,45.10
2018-03-06T13:12:13.249Z,44.80
2018-03-06T13:14:40.867Z,44.50
2018-03-06T13:17:08.474Z,44.30
2018-03-06T13:19:36.116Z,44.50
2018-03-06T13:22:03.723Z,44.30
2018-03-06T13:24:31.357Z,44.20
2018-03-06T13:26:59.691Z,44.00
2018-03-06T13:29:27.336Z,44.00
2018-03-06T13:31:54.902Z,44.00
2018-03-06T13:34:22.485Z,44.00
2018-03-06T13:36:50.150Z,43.70
2018-03-06T13:39:17.774Z,43.70
2018-03-06T13:41:45.412Z,43.70
2018-03-06T13:44:12.983Z,43.90
2018-03-06T13:46:40.560Z,44.00
2018-03-06T13:49:08.164Z,44.00
2018-03-06T13:51:35.789Z,43.70
2018-03-06T13:54:03.559Z,43.60
2018-03-06T13:56:31.216Z,43.60
2018-03-06T13:59:00.213Z,43.60
2018-03-06T14:01:28.616Z,43.30
2018-03-06T14:03:57.044Z,43.30
2018-03-06T14:06:24.707Z,43.20
2018-03-06T14:08:52.908Z,43.20
2018-03-06T14:11:22.212Z,43.30
2018-03-06T14:13:49.783Z,43.10
2018-03-06T14:16:17.423Z,43.10
2018-03-06T14:18:45.025Z,42.80
2018-03-06T14:21:12.646Z,42.70
2018-03-06T14:23:41.076Z,42.60
2018-03-06T14:26:08.665Z,42.60
2018-03-06T14:28:36.240Z,42.50
2018-03-06T14:31:03.869Z,42.50
2018-03-06T14:33:32.244Z,42.30
2018-03-06T14:36:01.608Z,42.40
2018-03-06T14:38:29.166Z,42.30
2018-03-06T14:40:58.205Z,42.20
2018-03-06T14:43:25.810Z,42.00
2018-03-06T14:45:53.421Z,42.00
2018-03-06T14:48:21.028Z,42.00
2018-03-06T14:50:48.603Z,42.00
2018-03-06T14:53:16.886Z,41.80
2018-03-06T14:55:44.475Z,41.70
2018-03-06T14:58:12.124Z,41.70
2018-03-06T15:00:39.825Z,41.80
2018-03-06T15:03:07.626Z,41.80
2018-03-06T15:05:35.199Z,41.80
2018-03-06T15:08:02.780Z,41.90
2018-03-06T15:10:31.141Z,41.80
2018-03-06T15:12:58.716Z,41.80
2018-03-06T15:15:26.338Z,41.80
2018-03-06T15:17:53.935Z,41.80
2018-03-06T15:20:22.309Z,41.60
2018-03-06T15:22:49.890Z,42.20
2018-03-06T15:25:17.540Z,41.60
2018-03-06T15:27:45.148Z,41.60
2018-03-06T15:30:12.784Z,41.50
2018-03-06T15:32:40.480Z,41.70
2018-03-06T15:35:08.101Z,41.80
2018-03-06T15:37:35.686Z,41.80
2018-03-06T15:40:04.038Z,41.80
2018-03-06T15:42:31.635Z,41.80
2018-03-06T15:44:59.215Z,41.70
2018-03-06T15:47:26.812Z,41.70
2018-03-06T15:49:54.396Z,41.50
2018-03-06T15:52:22.030Z,41.50
2018-03-06T15:54:49.640Z,41.50
2018-03-06T15:57:18.073Z,41.60
2018-03-06T15:59:45.709Z,41.70
2018-03-06T16:02:13.323Z,41.90
2018-03-06T16:04:40.959Z,41.70
2018-03-06T16:07:08.531Z,41.80
2018-03-06T16:09:36.150Z,41.90
2018-03-06T16:12:03.757Z,41.90
2018-03-06T16:14:32.168Z,42.00
2018-03-06T16:16:59.750Z,41.90
2018-03-06T16:19:27.346Z,42.10
2018-03-06T16:21:54.946Z,42.10
2018-03-06T16:24:22.525Z,42.10
2018-03-06T16:26:50.869Z,42.20
2018-03-06T16:29:18.440Z,42.10
2018-03-06T16:31:46.088Z,42.20
2018-03-06T16:34:13.684Z,42.50
2018-03-06T16:36:41.297Z,42.80
2018-03-06T16:39:09.686Z,43.40
2018-03-06T16:41:38.480Z,43.20
2018-03-06T16:44:06.084Z,44.00
2018-03-06T16:46:33.698Z,43.50
2018-03-06T16:49:01.293Z,43.70
2018-03-06T16:51:28.890Z,43.80
2018-03-06T16:53:57.241Z,44.20
2018-03-06T16:56:25.611Z,44.40
2018-03-06T16:58:53.189Z,44.30
2018-03-06T17:01:20.785Z,44.60
2018-03-06T17:03:48.369Z,44.60
2018-03-06T17:06:16.035Z,44.70
2018-03-06T17:08:43.692Z,44.80
2018-03-06T17:11:11.371Z,44.90
2018-03-06T17:13:39.194Z,45.00
2018-03-06T17:16:06.769Z,45.10
2018-03-06T17:18:34.371Z,46.00
2018-03-06T17:21:01.938Z,45.90
2018-03-06T17:23:29.509Z,46.20
2018-03-06T17:25:57.086Z,46.20
2018-03-06T17:28:24.662Z,46.30
2018-03-06T17:30:52.228Z,46.40
2018-03-06T17:33:19.829Z,46.50
2018-03-06T17:35:47.418Z,46.50
2018-03-06T17:38:15.011Z,46.70
2018-03-06T17:40:43.344Z,46.80
2018-03-06T17:43:10.911Z,46.70
2018-03-06T17:45:39.505Z,46.80
2018-03-06T17:48:07.071Z,46.90
2018-03-06T17:50:34.623Z,47.00
2018-03-06T17:53:02.195Z,47.00
2018-03-06T17:55:29.776Z,47.00
2018-03-06T17:57:57.342Z,47.10
2018-03-06T18:00:24.915Z,47.30
2018-03-06T18:02:52.491Z,47.20
2018-03-06T18:05:20.075Z,47.20
2018-03-06T18:07:47.646Z,47.20
2018-03-06T18:10:15.237Z,47.30
2018-03-06T18:12:42.804Z,47.40
2018-03-06T18:15:10.361Z,47.40
2018-03-06T18:17:38.978Z,47.30
2018-03-06T18:20:07.319Z,47.50
2018-03-06T18:22:35.653Z,47.70
2018-03-06T18:25:03.227Z,47.60
2018-03-06T18:27:30.779Z,47.60
2018-03-06T18:29:58.365Z,47.60
2018-03-06T18:32:25.924Z,47.60
2018-03-06T18:34:53.478Z,47.80
2018-03-06T18:37:21.113Z,47.80
2018-03-06T18:39:49.541Z,48.00
2018-03-06T18:42:17.115Z,48.00
2018-03-06T18:44:44.691Z,48.20
2018-03-06T18:47:12.312Z,48.40
2018-03-06T18:50:01.587Z,48.40
2018-03-06T18:52:29.164Z,48.50
2018-03-06T18:54:56.758Z,48.50
2018-03-06T18:57:24.375Z,48.60
2018-03-06T19:00:03.880Z,48.60
2018-03-06T19:02:43.294Z,48.70
2018-03-06T19:05:22.712Z,48.80
2018-03-06T19:07:51.060Z,49.00
2018-03-06T19:10:18.648Z,49.00
2018-03-06T19:12:47.032Z,49.30
2018-03-06T19:15:14.600Z,49.00
2018-03-06T19:17:42.208Z,49.10
2018-03-06T19:20:10.574Z,49.50
2018-03-06T19:22:38.936Z,49.50
2018-03-06T19:25:06.568Z,49.70
2018-03-06T19:27:34.120Z,49.90
2018-03-06T19:30:01.694Z,50.10
2018-03-06T19:32:29.254Z,50.20
2018-03-06T19:34:56.809Z,50.20
2018-03-06T19:37:24.380Z,50.30
2018-03-06T19:39:51.959Z,50.30
2018-03-06T19:42:19.535Z,50.30
2018-03-06T19:44:47.104Z,50.40
2018-03-06T19:47:14.708Z,50.30
2018-03-06T19:49:42.300Z,50.50
2018-03-06T19:52:10.645Z,50.50
2018-03-06T19:54:38.466Z,50.40
2018-03-06T19:57:06.808Z,50.40
2018-03-06T19:59:34.407Z,50.20
2018-03-06T20:02:01.967Z,50.20
2018-03-06T20:04:29.551Z,50.20
2018-03-06T20:06:57.130Z,50.20
2018-03-06T20:09:24.735Z,50.20
2018-03-06T20:11:53.085Z,50.50
2018-03-06T20:14:26.222Z,50.50
2018-03-06T20:16:54.587Z,50.80
2018-03-06T20:19:41.845Z,50.80
2018-03-06T20:22:10.181Z,50.90
2018-03-06T20:24:43.317Z,50.90
2018-03-06T20:27:10.875Z,51.00
2018-03-06T20:29:38.616Z,51.10
2018-03-06T20:32:11.755Z,51.10
2018-03-06T20:34:39.565Z,51.20
2018-03-06T20:37:07.918Z,51.30
2018-03-06T20:39:41.136Z,51.20
2018-03-06T20:42:08.707Z,51.30
2018-03-06T20:44:36.332Z,51.20
2018-03-06T20:47:09.640Z,51.40
2018-03-06T20:49:37.276Z,51.40
2018-03-06T20:52:04.866Z,51.40
2018-03-06T20:54:39.012Z,51.40
2018-03-06T20:57:06.612Z,51.30
2018-03-06T20:59:34.224Z,51.40
2018-03-06T21:02:01.796Z,51.40
2018-03-06T21:04:30.184Z,51.50
2018-03-06T21:06:58.531Z,51.50
2018-03-06T21:09:26.102Z,51.50
2018-03-06T21:11:53.666Z,51.50
2018-03-06T21:14:21.535Z,51.70
2018-03-06T21:16:49.106Z,51.70
2018-03-06T21:19:16.716Z,51.80
2018-03-06T21:21:45.148Z,51.90
2018-03-06T21:24:13.618Z,51.80
2018-03-06T21:26:41.617Z,51.70
2018-03-06T21:29:09.561Z,51.80
2018-03-06T21:31:38.726Z,51.80
2018-03-06T21:34:06.418Z,51.80
2018-03-06T21:36:34.317Z,51.90
2018-03-06T21:39:01.956Z,51.80
2018-03-06T21:41:29.599Z,51.90
2018-03-06T21:43:57.733Z,51.70
2018-03-06T21:46:26.138Z,51.30
2018-03-06T21:48:53.772Z,51.20
2018-03-06T21:51:22.455Z,51.30
2018-03-06T21:53:50.807Z,51.50
2018-03-06T21:56:19.223Z,52.00
2018-03-06T21:58:46.815Z,52.00
2018-03-06T22:01:15.376Z,52.10
2018-03-06T22:03:43.154Z,52.10
2018-03-06T22:06:11.014Z,52.20
2018-03-06T22:08:38.842Z,52.30
2018-03-06T22:11:06.602Z,52.50
2018-03-06T22:13:34.194Z,52.50
2018-03-06T22:16:02.542Z,52.50
2018-03-06T22:18:30.908Z,53.20
2018-03-06T22:20:59.161Z,53.10
2018-03-06T22:23:28.375Z,53.70
2018-03-06T22:25:56.586Z,53.60
2018-03-06T22:28:24.186Z,53.60
2018-03-06T22:30:51.768Z,53.60
2018-03-06T22:33:19.341Z,53.60
2018-03-06T22:35:46.927Z,53.60
2018-03-06T22:38:14.716Z,53.70
2018-03-06T22:40:43.130Z,53.60
2018-03-06T22:43:10.724Z,53.60
2018-03-06T22:45:38.514Z,53.60
2018-03-06T22:48:06.075Z,53.50
2018-03-06T22:50:33.631Z,53.60
2018-03-06T22:53:01.216Z,53.60
2018-03-06T22:55:28.791Z,53.70
2018-03-06T22:57:56.417Z,53.90
2018-03-06T23:00:24.755Z,54.10
2018-03-06T23:02:52.322Z,54.00
2018-03-06T23:05:19.959Z,54.10
2018-03-06T23:07:48.300Z,54.20
2018-03-06T23:10:16.069Z,54.00
2018-03-06T23:12:44.491Z,54.20
2018-03-06T23:15:12.066Z,54.10
2018-03-06T23:17:39.814Z,54.30
2018-03-06T23:20:07.396Z,54.50
2018-03-06T23:22:34.987Z,54.60
2018-03-06T23:25:02.583Z,54.70
2018-03-06T23:27:31.729Z,54.80
2018-03-06T23:29:59.311Z,54.70
2018-03-06T23:32:26.889Z,54.60
2018-03-06T23:34:54.489Z,54.60
2018-03-06T23:37:22.048Z,54.70
2018-03-06T23:39:50.399Z,55.40
2018-03-06T23:42:17.964Z,55.40
2018-03-06T23:44:45.564Z,55.70
2018-03-06T23:47:13.131Z,55.80
2018-03-06T23:49:40.712Z,55.70
2018-03-06T23:52:08.302Z,55.90
2018-03-06T23:54:35.868Z,56.10
2018-03-06T23:57:03.605Z,56.40
2018-03-06T23:59:31.174Z,56.40
